Time;durP1;ratioP1;P1;durP2;ratioP2;P2;SDS_P1;SDS_P2;PMS_P1;PMS_P2;Temp;Humidity;BMP_temperature;BMP_pressure;BME280_temperature;BME280_humidity;BME280_pressure;Samples;Min_cycle;Max_cycle;Signal;HPM_P1;HPM_P2
2023/04/13 00:00:43;;;;;;;10.95;8.60;;;5.20;99.90;;;;;;5066976;28;20040;-72
2023/04/13 00:03:11;;;;;;;9.35;8.43;;;5.10;99.90;;;;;;5066176;28;20055;-72
2023/04/13 00:05:37;;;;;;;11.07;9.57;;;5.10;99.90;;;;;;5065332;28;20048;-72
2023/04/13 00:08:04;;;;;;;9.30;8.30;;;5.10;99.90;;;;;;5066761;28;20041;-72
2023/04/13 00:10:34;;;;;;;11.57;9.18;;;5.20;99.90;;;;;;5058815;28;20458;-73
2023/04/13 00:13:04;;;;;;;10.38;8.23;;;5.20;99.90;;;;;;5058753;28;20524;-73
2023/04/13 00:15:30;;;;;;;9.52;7.78;;;5.30;99.90;;;;;;5063278;28;20087;-72
2023/04/13 00:17:55;;;;;;;9.40;8.48;;;5.40;99.90;;;;;;5057815;28;20048;-72
2023/04/13 00:20:21;;;;;;;9.35;7.57;;;5.50;99.90;;;;;;5065036;28;20044;-72
2023/04/13 00:22:47;;;;;;;11.23;9.07;;;5.60;99.90;;;;;;5065954;28;20157;-72
2023/04/13 00:25:14;;;;;;;10.13;9.13;;;5.60;99.90;;;;;;5066332;28;20036;-72
2023/04/13 00:27:42;;;;;;;10.07;8.98;;;5.70;99.90;;;;;;5061935;28;20052;-72
2023/04/13 00:30:09;;;;;;;11.43;9.05;;;5.70;99.90;;;;;;5065949;28;20080;-72
2023/04/13 00:32:37;;;;;;;9.93;8.77;;;5.80;99.90;;;;;;5065659;28;20083;-72
2023/04/13 00:35:03;;;;;;;10.30;7.70;;;5.80;99.90;;;;;;5061857;28;20052;-72
2023/04/13 00:37:29;;;;;;;12.75;8.18;;;5.90;99.90;;;;;;5065695;28;20128;-72
2023/04/13 00:39:55;;;;;;;10.10;7.40;;;5.90;99.90;;;;;;5062371;28;20085;-72
2023/04/13 00:42:21;;;;;;;15.90;8.30;;;5.90;99.90;;;;;;5063921;28;20052;-72
2023/04/13 00:44:47;;;;;;;10.10;7.55;;;6.00;99.90;;;;;;5057470;28;20040;-72
2023/04/13 00:47:16;;;;;;;10.75;7.40;;;6.00;99.90;;;;;;5065500;28;20078;-73
2023/04/13 00:49:42;;;;;;;8.75;7.82;;;6.10;99.90;;;;;;5065901;28;20123;-72
2023/04/13 00:52:10;;;;;;;10.15;7.97;;;6.10;99.90;;;;;;5062259;28;20053;-72
2023/04/13 00:54:37;;;;;;;8.80;7.88;;;6.10;99.90;;;;;;5098966;28;20082;-72
2023/04/13 00:57:04;;;;;;;10.10;6.50;;;6.20;99.90;;;;;;5065442;28;20505;-72
2023/04/13 00:59:31;;;;;;;7.38;6.70;;;6.20;99.90;;;;;;5064570;28;20151;-73
2023/04/13 01:01:57;;;;;;;11.52;8.25;;;6.30;99.90;;;;;;5063764;28;20075;-72
2023/04/13 01:04:24;;;;;;;11.93;7.70;;;6.20;99.90;;;;;;5065203;28;20150;-73
2023/04/13 01:07:09;;;;;;;8.52;6.60;;;6.30;99.90;;;;;;5064651;28;20109;-73
2023/04/13 01:09:54;;;;;;;7.63;6.57;;;6.30;99.90;;;;;;5061892;28;20045;-73
2023/04/13 01:12:34;;;;;;;10.07;6.47;;;6.30;99.90;;;;;;5060517;28;20044;-72
2023/04/13 01:15:08;;;;;;;6.57;5.95;;;6.20;99.90;;;;;;5065515;28;20059;-73
2023/04/13 01:17:36;;;;;;;9.13;7.70;;;6.20;99.90;;;;;;5061697;28;20053;-73
2023/04/13 01:20:05;;;;;;;7.88;5.85;;;6.20;99.90;;;;;;5065869;28;20041;-74
2023/04/13 01:22:32;;;;;;;8.02;6.40;;;6.20;99.90;;;;;;5065640;28;20076;-74
2023/04/13 01:25:05;;;;;;;6.43;4.80;;;6.20;99.90;;;;;;5065307;28;20532;-74
2023/04/13 01:27:52;;;;;;;7.22;4.60;;;6.20;99.90;;;;;;5069130;28;20143;-74
2023/04/13 01:30:21;;;;;;;7.45;4.45;;;6.10;99.90;;;;;;5068730;28;20048;-73
2023/04/13 01:32:51;;;;;;;7.05;4.82;;;6.10;99.90;;;;;;5069312;28;20036;-74
2023/04/13 01:35:19;;;;;;;8.18;4.78;;;6.10;99.90;;;;;;5067981;28;20040;-74
2023/04/13 01:37:45;;;;;;;6.70;3.92;;;6.10;99.90;;;;;;5071059;28;20123;-74
2023/04/13 01:40:12;;;;;;;7.22;4.53;;;6.10;99.90;;;;;;5069522;28;20424;-74
2023/04/13 01:42:42;;;;;;;4.50;4.07;;;6.10;99.90;;;;;;5064168;28;20053;-74
2023/04/13 01:45:20;;;;;;;9.20;3.95;;;6.10;99.90;;;;;;5068115;28;20068;-74
2023/04/13 01:48:14;;;;;;;7.05;4.15;;;6.10;99.90;;;;;;5067653;28;20047;-74
2023/04/13 01:50:43;;;;;;;5.95;4.75;;;6.10;99.90;;;;;;5064299;28;20139;-74
2023/04/13 01:53:15;;;;;;;8.20;4.47;;;6.10;99.90;;;;;;5101725;28;20664;-74
2023/04/13 01:55:42;;;;;;;4.60;4.00;;;6.10;99.90;;;;;;5067124;28;20047;-73
2023/04/13 01:58:12;;;;;;;7.53;4.80;;;6.00;99.90;;;;;;5068187;28;20045;-74
2023/04/13 02:00:38;;;;;;;8.48;4.95;;;6.00;99.90;;;;;;5062647;28;20311;-74
2023/04/13 02:03:06;;;;;;;8.25;4.53;;;6.10;99.90;;;;;;5067470;28;20052;-74
2023/04/13 02:05:34;;;;;;;5.97;3.75;;;6.00;99.90;;;;;;5066152;28;20059;-74
2023/04/13 02:08:02;;;;;;;7.60;4.47;;;6.00;99.90;;;;;;5083716;28;20048;-73
2023/04/13 02:10:28;;;;;;;8.10;4.18;;;6.00;99.90;;;;;;5067325;28;20127;-74
2023/04/13 02:12:54;;;;;;;6.78;4.53;;;6.10;99.90;;;;;;5064995;28;20572;-74
2023/04/13 02:15:20;;;;;;;4.75;3.85;;;6.10;99.90;;;;;;5064385;28;20048;-74
2023/04/13 02:17:45;;;;;;;7.00;3.97;;;6.00;99.90;;;;;;5067098;28;20201;-74
2023/04/13 02:20:11;;;;;;;5.40;3.80;;;6.00;99.90;;;;;;5068220;28;20117;-74
2023/04/13 02:22:42;;;;;;;7.30;4.22;;;6.00;99.90;;;;;;5066673;28;20048;-75
2023/04/13 02:25:10;;;;;;;4.32;3.47;;;6.00;99.90;;;;;;5097142;28;20469;-75
2023/04/13 02:27:37;;;;;;;4.70;3.83;;;6.00;99.90;;;;;;5067478;28;20045;-75
2023/04/13 02:30:05;;;;;;;6.80;5.00;;;6.10;99.90;;;;;;5067330;28;20048;-75
2023/04/13 02:32:31;;;;;;;8.82;4.05;;;6.00;99.90;;;;;;5062850;28;20519;-74
2023/04/13 02:35:00;;;;;;;6.78;4.53;;;6.00;99.90;;;;;;5067508;28;20056;-75
2023/04/13 02:37:30;;;;;;;7.82;4.80;;;6.00;99.90;;;;;;5067382;28;20032;-75
2023/04/13 02:39:56;;;;;;;7.00;4.53;;;6.00;99.90;;;;;;5065997;28;20064;-74
2023/04/13 02:42:22;;;;;;;9.52;5.40;;;6.00;99.90;;;;;;5066466;28;20397;-75
2023/04/13 02:44:48;;;;;;;6.80;4.75;;;6.00;99.90;;;;;;5067533;28;20084;-74
2023/04/13 02:47:15;;;;;;;8.02;5.25;;;6.00;99.90;;;;;;5065697;28;20057;-75
2023/04/13 02:49:42;;;;;;;7.50;5.05;;;6.00;99.90;;;;;;5065908;28;20047;-75
2023/04/13 02:52:08;;;;;;;8.00;5.65;;;6.00;99.90;;;;;;5050620;28;20055;-74
2023/04/13 02:54:33;;;;;;;24.30;6.22;;;6.00;99.90;;;;;;5067576;28;20040;-74
2023/04/13 02:57:00;;;;;;;8.00;5.15;;;6.00;99.90;;;;;;5064129;28;20044;-74
2023/04/13 02:59:27;;;;;;;6.20;4.07;;;6.00;99.90;;;;;;5067224;28;20118;-74
2023/04/13 03:01:57;;;;;;;8.75;5.20;;;6.00;99.90;;;;;;5066465;28;20495;-74
2023/04/13 03:04:23;;;;;;;5.75;4.88;;;6.00;99.90;;;;;;5063549;28;20040;-75
2023/04/13 03:06:50;;;;;;;4.88;4.25;;;6.00;99.90;;;;;;5066482;28;20052;-74
2023/04/13 03:09:16;;;;;;;4.93;4.13;;;6.00;99.90;;;;;;5066458;28;20056;-74
2023/04/13 03:11:42;;;;;;;7.80;3.85;;;6.00;99.90;;;;;;5061545;28;20106;-74
2023/04/13 03:14:11;;;;;;;12.43;3.97;;;6.00;99.90;;;;;;5067290;28;20076;-74
2023/04/13 03:16:37;;;;;;;5.35;4.38;;;6.00;99.90;;;;;;5059850;28;20509;-74
2023/04/13 03:19:04;;;;;;;5.75;3.92;;;6.00;99.90;;;;;;5059606;28;20036;-74
2023/04/13 03:21:31;;;;;;;10.65;4.30;;;6.00;99.90;;;;;;5043449;28;20040;-74
2023/04/13 03:23:57;;;;;;;4.97;4.20;;;6.00;99.90;;;;;;5061158;28;20055;-74
2023/04/13 03:26:24;;;;;;;4.05;3.65;;;6.00;99.90;;;;;;5058125;28;20052;-74
2023/04/13 03:28:50;;;;;;;6.75;4.03;;;6.00;99.90;;;;;;5063238;28;20044;-74
2023/04/13 03:31:16;;;;;;;4.50;2.47;;;6.00;99.90;;;;;;5062426;28;20062;-74
2023/04/13 03:33:42;;;;;;;5.10;3.28;;;6.10;99.90;;;;;;5063015;28;20045;-74
2023/04/13 03:36:09;;;;;;;3.45;3.10;;;6.10;99.90;;;;;;5065193;28;20084;-73
2023/04/13 03:38:34;;;;;;;4.28;3.40;;;6.10;99.90;;;;;;5065972;28;20133;-73
2023/04/13 03:41:00;;;;;;;6.57;3.58;;;6.00;99.90;;;;;;5065743;28;20099;-72
2023/04/13 03:43:26;;;;;;;2.92;2.63;;;6.10;99.90;;;;;;5065883;28;20044;-73
2023/04/13 03:45:52;;;;;;;3.47;3.10;;;6.10;99.90;;;;;;5057671;28;20468;-73
2023/04/13 03:48:18;;;;;;;3.55;3.25;;;6.10;99.90;;;;;;5065492;28;20040;-74
2023/04/13 03:50:44;;;;;;;6.00;3.90;;;6.10;99.90;;;;;;5065444;28;20409;-74
2023/04/13 03:53:09;;;;;;;6.47;3.28;;;6.10;99.90;;;;;;5061961;28;20044;-74
2023/04/13 03:55:36;;;;;;;8.38;3.78;;;6.10;99.90;;;;;;5065501;28;20166;-74
2023/04/13 03:58:02;;;;;;;6.65;4.07;;;6.10;99.90;;;;;;5099703;28;20060;-74
2023/04/13 04:00:28;;;;;;;7.07;4.32;;;6.10;99.90;;;;;;5062425;28;20032;-74
2023/04/13 04:02:53;;;;;;;5.18;3.85;;;6.10;99.90;;;;;;5068358;28;20057;-74
2023/04/13 04:05:19;;;;;;;8.55;4.97;;;6.10;99.90;;;;;;5058346;28;20075;-74
2023/04/13 04:07:46;;;;;;;4.70;3.95;;;6.20;99.90;;;;;;5061812;28;20140;-74
2023/04/13 04:10:12;;;;;;;4.72;4.32;;;6.20;99.90;;;;;;5065621;28;20123;-74
2023/04/13 04:12:37;;;;;;;8.07;4.47;;;6.20;99.90;;;;;;5065721;28;20151;-74
2023/04/13 04:15:04;;;;;;;6.82;4.93;;;6.10;99.90;;;;;;5065927;28;20052;-74
2023/04/13 04:17:30;;;;;;;4.85;4.05;;;6.20;99.90;;;;;;5063307;28;20052;-74
2023/04/13 04:19:56;;;;;;;6.10;3.80;;;6.20;99.90;;;;;;5064600;28;20059;-74
2023/04/13 04:22:28;;;;;;;5.45;4.03;;;6.20;99.90;;;;;;5066338;28;20049;-74
2023/04/13 04:24:58;;;;;;;5.55;3.83;;;6.20;99.90;;;;;;5065454;28;20051;-74
2023/04/13 04:27:27;;;;;;;6.15;4.32;;;6.20;99.90;;;;;;5065604;28;20056;-74
2023/04/13 04:29:57;;;;;;;5.95;4.38;;;6.20;99.90;;;;;;5065572;28;20530;-74
2023/04/13 04:32:24;;;;;;;6.10;4.13;;;6.30;99.90;;;;;;5065465;28;20076;-73
2023/04/13 04:34:52;;;;;;;5.25;4.15;;;6.30;99.90;;;;;;5062676;28;20546;-74
2023/04/13 04:37:22;;;;;;;8.60;4.55;;;6.30;99.90;;;;;;5060187;28;20040;-73
2023/04/13 04:39:48;;;;;;;12.05;4.78;;;6.20;99.90;;;;;;5099216;28;20067;-73
2023/04/13 04:42:13;;;;;;;4.95;4.45;;;6.20;99.90;;;;;;5065159;28;20045;-73
2023/04/13 04:44:39;;;;;;;5.97;4.80;;;6.20;99.90;;;;;;5065774;28;20040;-73
2023/04/13 04:47:05;;;;;;;7.25;5.43;;;6.30;99.90;;;;;;5065984;28;20058;-73
2023/04/13 04:49:32;;;;;;;5.95;4.93;;;6.30;99.90;;;;;;5067330;28;20051;-73
2023/04/13 04:51:58;;;;;;;13.80;4.25;;;6.30;99.90;;;;;;5064083;28;20563;-73
2023/04/13 04:54:24;;;;;;;6.93;4.60;;;6.30;99.90;;;;;;5063741;28;20044;-74
2023/04/13 04:56:50;;;;;;;4.78;4.22;;;6.30;99.90;;;;;;5063272;28;20528;-74
2023/04/13 04:59:19;;;;;;;6.95;4.70;;;6.30;99.90;;;;;;5067648;28;20048;-74
2023/04/13 05:01:45;;;;;;;6.38;5.13;;;6.30;99.90;;;;;;5069858;28;20123;-74
2023/04/13 05:04:10;;;;;;;6.38;5.40;;;6.40;99.90;;;;;;5069327;28;20174;-73
2023/04/13 05:06:39;;;;;;;8.20;5.60;;;6.30;99.90;;;;;;5066138;28;20056;-75
2023/04/13 05:09:06;;;;;;;8.68;5.38;;;6.30;99.90;;;;;;5102002;28;20063;-74
2023/04/13 05:11:32;;;;;;;13.60;6.25;;;6.30;99.90;;;;;;5068996;28;20076;-74
2023/04/13 05:13:59;;;;;;;7.75;6.20;;;6.30;99.90;;;;;;5069045;28;20056;-73
2023/04/13 05:16:24;;;;;;;9.60;6.15;;;6.40;99.90;;;;;;5068064;28;20110;-74
2023/04/13 05:18:51;;;;;;;11.63;5.80;;;6.30;99.90;;;;;;5069203;28;20182;-73
2023/04/13 05:21:17;;;;;;;14.95;7.78;;;6.40;99.90;;;;;;5070144;28;20048;-74
2023/04/13 05:23:43;;;;;;;11.05;7.00;;;6.40;99.90;;;;;;5065293;28;20041;-73
2023/04/13 05:26:11;;;;;;;9.15;5.88;;;6.40;99.90;;;;;;5067981;28;20066;-74
2023/04/13 05:28:37;;;;;;;5.90;4.82;;;6.70;99.90;;;;;;5068630;28;20544;-73
2023/04/13 05:31:06;;;;;;;10.82;5.18;;;7.40;99.90;;;;;;5069153;28;20162;-73
2023/04/13 05:33:34;;;;;;;7.30;5.60;;;8.30;99.90;;;;;;5064520;28;20052;-74
2023/04/13 05:36:02;;;;;;;8.98;5.60;;;9.10;99.90;;;;;;5071567;28;20052;-74
2023/04/13 05:38:28;;;;;;;7.28;5.88;;;9.50;99.90;;;;;;5068957;28;20048;-74
2023/04/13 05:40:53;;;;;;;5.28;4.25;;;9.80;99.90;;;;;;5064039;28;20852;-73
2023/04/13 05:43:19;;;;;;;5.63;4.70;;;10.20;99.90;;;;;;5062822;28;20059;-73
2023/04/13 05:45:46;;;;;;;7.25;5.35;;;10.30;99.90;;;;;;5068132;28;20048;-75
2023/04/13 05:48:12;;;;;;;5.78;4.57;;;10.10;99.90;;;;;;5069573;28;20048;-74
2023/04/13 05:50:37;;;;;;;8.35;5.43;;;9.60;99.90;;;;;;5061484;28;20044;-74
2023/04/13 05:53:06;;;;;;;7.40;5.35;;;9.40;99.90;;;;;;5068097;28;20148;-73
2023/04/13 05:55:32;;;;;;;7.65;5.25;;;9.00;99.90;;;;;;5068013;28;20497;-74
2023/04/13 05:57:59;;;;;;;7.15;4.63;;;8.60;99.90;;;;;;5065953;28;20055;-73
2023/04/13 06:00:26;;;;;;;13.60;6.07;;;8.30;99.90;;;;;;5063084;28;20053;-73
2023/04/13 06:02:53;;;;;;;6.53;4.70;;;8.40;99.90;;;;;;5068177;28;20137;-74
2023/04/13 06:05:19;;;;;;;8.32;5.13;;;8.50;99.90;;;;;;5067514;28;20064;-74
2023/04/13 06:07:46;;;;;;;8.80;5.00;;;8.70;99.90;;;;;;5067737;28;20056;-74
2023/04/13 06:10:15;;;;;;;6.65;4.97;;;9.30;99.90;;;;;;5068377;28;20048;-74
2023/04/13 06:12:41;;;;;;;10.82;5.22;;;9.70;99.90;;;;;;5067495;28;20056;-73
2023/04/13 06:15:08;;;;;;;8.43;4.68;;;10.10;99.90;;;;;;5064742;28;20056;-74
2023/04/13 06:17:37;;;;;;;11.07;6.00;;;10.20;99.90;;;;;;5058247;28;20048;-74
2023/04/13 06:20:05;;;;;;;6.78;5.82;;;10.10;99.90;;;;;;5050002;28;20105;-75
2023/04/13 06:22:32;;;;;;;11.48;5.47;;;9.90;99.90;;;;;;5068701;28;20147;-73
2023/04/13 06:24:57;;;;;;;10.10;5.65;;;9.50;99.90;;;;;;5068764;28;20056;-73
2023/04/13 06:27:23;;;;;;;14.10;6.15;;;9.30;99.90;;;;;;5067137;28;20393;-73
2023/04/13 06:29:50;;;;;;;11.15;6.93;;;9.40;99.90;;;;;;5064314;28;20049;-73
2023/04/13 06:32:15;;;;;;;7.65;5.82;;;9.20;99.90;;;;;;5066729;28;20049;-73
2023/04/13 06:34:43;;;;;;;8.48;6.45;;;8.90;99.90;;;;;;5062960;28;20410;-73
2023/04/13 06:37:09;;;;;;;12.32;7.03;;;8.70;99.90;;;;;;5060493;28;20548;-73
2023/04/13 06:39:36;;;;;;;12.10;7.40;;;8.50;99.90;;;;;;5067003;28;20049;-74
2023/04/13 06:42:03;;;;;;;11.23;7.28;;;8.40;99.90;;;;;;5066404;28;20166;-73
2023/04/13 06:44:29;;;;;;;13.23;7.43;;;8.30;99.90;;;;;;5067928;28;20059;-74
2023/04/13 06:46:55;;;;;;;10.85;6.78;;;8.20;99.90;;;;;;5061358;28;20044;-73
2023/04/13 06:49:21;;;;;;;11.93;7.47;;;8.20;99.90;;;;;;5060192;28;20056;-74
2023/04/13 06:51:47;;;;;;;12.07;7.22;;;8.20;99.90;;;;;;5066141;28;20680;-73
2023/04/13 06:54:13;;;;;;;14.10;7.95;;;8.30;99.90;;;;;;5069801;28;20047;-74
2023/04/13 06:56:39;;;;;;;12.48;8.10;;;8.40;99.90;;;;;;5066727;28;20036;-74
2023/04/13 06:59:04;;;;;;;8.65;7.35;;;8.40;99.90;;;;;;5067177;28;20094;-74
2023/04/13 07:01:30;;;;;;;12.02;6.38;;;8.30;99.90;;;;;;5067066;28;20064;-74
2023/04/13 07:03:56;;;;;;;9.25;6.32;;;8.40;99.90;;;;;;5056716;28;20118;-74
2023/04/13 07:06:22;;;;;;;9.38;6.47;;;8.40;99.90;;;;;;5089326;28;20060;-73
2023/04/13 07:08:48;;;;;;;13.07;6.50;;;8.60;99.90;;;;;;5059113;28;20055;-74
2023/04/13 07:11:14;;;;;;;9.98;6.35;;;8.60;99.90;;;;;;5066407;28;20037;-74
2023/04/13 07:13:40;;;;;;;11.30;6.50;;;8.70;99.90;;;;;;5066740;28;20115;-74
2023/04/13 07:16:10;;;;;;;9.10;5.88;;;8.70;99.90;;;;;;5064082;28;20044;-74
2023/04/13 07:18:37;;;;;;;13.50;7.30;;;8.70;99.90;;;;;;5066863;28;20047;-74
2023/04/13 07:21:03;;;;;;;10.55;7.38;;;8.60;99.90;;;;;;5065228;28;20040;-73
2023/04/13 07:23:29;;;;;;;10.80;6.85;;;8.50;99.90;;;;;;5060067;28;20524;-73
2023/04/13 07:25:55;;;;;;;11.98;7.07;;;8.50;99.90;;;;;;5049637;28;20048;-73
2023/04/13 07:28:20;;;;;;;9.35;7.97;;;8.50;99.90;;;;;;5100602;28;20074;-73
2023/04/13 07:30:46;;;;;;;16.23;6.68;;;8.50;99.90;;;;;;5066092;28;20040;-73
2023/04/13 07:33:12;;;;;;;8.10;5.55;;;8.40;99.90;;;;;;5065593;28;20045;-73
2023/04/13 07:35:38;;;;;;;10.65;6.50;;;8.50;99.90;;;;;;5064420;28;20033;-73
2023/04/13 07:38:05;;;;;;;11.35;6.20;;;8.50;99.90;;;;;;5057028;28;20049;-73
2023/04/13 07:40:30;;;;;;;11.23;6.97;;;8.60;99.90;;;;;;5062660;28;20056;-73
2023/04/13 07:42:56;;;;;;;17.67;6.32;;;8.70;99.90;;;;;;5058830;28;20045;-73
2023/04/13 07:45:22;;;;;;;9.02;6.38;;;8.70;99.90;;;;;;5061395;28;20037;-73
2023/04/13 07:47:48;;;;;;;13.45;7.18;;;8.70;99.90;;;;;;5061370;28;20040;-73
2023/04/13 07:50:15;;;;;;;10.80;6.53;;;8.80;99.90;;;;;;5049367;28;20044;-73
2023/04/13 07:52:41;;;;;;;8.65;5.82;;;8.90;99.90;;;;;;5060161;28;20081;-73
2023/04/13 07:55:08;;;;;;;17.30;6.68;;;9.10;99.90;;;;;;5061766;28;20045;-73
2023/04/13 07:57:35;;;;;;;10.77;5.82;;;9.40;99.90;;;;;;5064938;28;20059;-73
2023/04/13 08:00:02;;;;;;;11.63;6.35;;;9.60;99.90;;;;;;5066888;28;20558;-72
2023/04/13 08:02:27;;;;;;;7.70;5.57;;;9.80;99.90;;;;;;5051283;28;20061;-73
2023/04/13 08:04:53;;;;;;;10.25;5.65;;;9.80;99.90;;;;;;5093003;28;20669;-73
2023/04/13 08:07:21;;;;;;;11.65;6.93;;;9.70;99.90;;;;;;5065785;28;20076;-73
2023/04/13 08:09:47;;;;;;;12.73;6.25;;;9.60;99.90;;;;;;5099219;28;20127;-72
2023/04/13 08:12:13;;;;;;;13.25;6.72;;;9.50;99.90;;;;;;5065375;28;20115;-72
2023/04/13 08:14:38;;;;;;;10.10;5.70;;;9.30;99.90;;;;;;5066607;28;20041;-73
2023/04/13 08:17:04;;;;;;;9.23;5.07;;;9.20;99.90;;;;;;5057600;28;20067;-73
2023/04/13 08:19:31;;;;;;;14.95;5.53;;;9.10;99.90;;;;;;5062211;28;20124;-72
2023/04/13 08:21:57;;;;;;;12.77;5.28;;;9.10;99.90;;;;;;5065783;28;20480;-72
2023/04/13 08:24:24;;;;;;;6.80;4.43;;;9.00;99.90;;;;;;5066605;28;20456;-72
2023/04/13 08:26:53;;;;;;;7.93;4.55;;;9.10;99.90;;;;;;5065088;28;20041;-72
2023/04/13 08:29:23;;;;;;;7.43;3.85;;;9.10;99.90;;;;;;5065233;28;20040;-72
2023/04/13 08:31:49;;;;;;;8.55;4.63;;;9.20;99.90;;;;;;5055525;28;20110;-72
2023/04/13 08:34:15;;;;;;;10.57;4.05;;;9.20;99.90;;;;;;5067758;28;20048;-72
2023/04/13 08:36:41;;;;;;;4.13;3.38;;;9.10;99.90;;;;;;5070880;28;20044;-73
2023/04/13 08:39:09;;;;;;;8.68;3.97;;;9.10;99.90;;;;;;5070544;28;20055;-73
2023/04/13 08:41:39;;;;;;;6.47;3.83;;;9.10;99.90;;;;;;5069696;28;20048;-72
2023/04/13 08:44:06;;;;;;;4.97;3.53;;;9.00;99.90;;;;;;5068559;28;20130;-73
2023/04/13 08:46:35;;;;;;;5.07;4.35;;;9.10;99.90;;;;;;5070921;28;20045;-73
2023/04/13 08:49:02;;;;;;;5.68;3.65;;;9.20;99.90;;;;;;5059814;28;20436;-72
2023/04/13 08:51:30;;;;;;;8.07;4.10;;;9.30;99.90;;;;;;5068455;28;20052;-72
2023/04/13 08:53:57;;;;;;;;;;;9.50;99.90;;;;;;5067444;28;20114;-72
2023/04/13 08:56:23;;;;;;;5.95;3.50;;;9.60;99.90;;;;;;5070334;28;20025;-72
2023/04/13 08:58:55;;;;;;;7.97;3.65;;;9.60;99.90;;;;;;5064087;28;20094;-73
2023/04/13 09:01:22;;;;;;;4.28;3.40;;;9.60;99.90;;;;;;5068567;28;20053;-73
2023/04/13 09:03:53;;;;;;;2.60;2.40;;;9.50;99.90;;;;;;5069017;28;20053;-74
2023/04/13 09:06:31;;;;;;;4.05;2.63;;;9.40;99.90;;;;;;5069330;28;20468;-74
2023/04/13 09:08:58;;;;;;;;;;;9.20;99.90;;;;;;5069197;28;20051;-74
2023/04/13 09:11:24;;;;;;;8.15;3.05;;;9.00;99.90;;;;;;5068412;28;19924;-75
2023/04/13 09:13:51;;;;;;;5.05;3.25;;;8.90;99.90;;;;;;5068348;28;20044;-74
2023/04/13 09:16:18;;;;;;;6.10;3.05;;;8.90;99.90;;;;;;5068805;28;20386;-74
2023/04/13 09:18:51;;;;;;;5.63;4.07;;;8.80;99.90;;;;;;5078235;28;20128;-74
2023/04/13 09:21:17;;;;;;;4.90;3.58;;;8.70;99.90;;;;;;5068216;28;20049;-75
2023/04/13 09:23:58;;;;;;;5.35;4.85;;;8.70;99.90;;;;;;5067275;28;20045;-75
2023/04/13 09:26:25;;;;;;;6.57;4.78;;;8.70;99.90;;;;;;5074480;28;20060;-75
2023/04/13 09:28:56;;;;;;;4.97;4.50;;;8.60;99.90;;;;;;5063796;28;20102;-75
2023/04/13 09:31:23;;;;;;;13.73;5.15;;;8.70;99.90;;;;;;5067196;28;20041;-74
2023/04/13 09:33:51;;;;;;;7.53;5.38;;;8.70;99.90;;;;;;5065728;28;20049;-75
2023/04/13 09:36:19;;;;;;;5.75;4.40;;;8.70;99.90;;;;;;5069195;28;20722;-75
2023/04/13 09:38:56;;;;;;;14.25;5.68;;;8.70;99.90;;;;;;5069186;28;20041;-75
2023/04/13 09:41:34;;;;;;;14.63;4.90;;;8.70;99.90;;;;;;5068941;28;20095;-74
2023/04/13 09:44:13;;;;;;;6.00;4.32;;;8.80;99.90;;;;;;5067582;28;20135;-75
2023/04/13 09:46:38;;;;;;;;;;;8.80;99.90;;;;;;5051811;28;20052;-75
2023/04/13 09:49:04;;;;;;;8.70;4.53;;;8.70;99.90;;;;;;5066477;28;19931;-74
2023/04/13 09:51:40;;;;;;;4.82;3.55;;;8.80;99.90;;;;;;5062638;28;20116;-75
2023/04/13 09:54:06;;;;;;;5.72;3.95;;;8.90;99.90;;;;;;5064457;28;20064;-73
2023/04/13 09:56:46;;;;;;;7.53;3.30;;;9.20;99.90;;;;;;5070031;28;20040;-73
2023/04/13 09:59:16;;;;;;;3.80;2.72;;;9.50;99.90;;;;;;5069981;28;20416;-73
2023/04/13 10:01:43;;;;;;;6.35;3.78;;;9.70;99.90;;;;;;5068884;28;20051;-73
2023/04/13 10:04:09;;;;;;;3.72;1.90;;;9.80;99.90;;;;;;5062709;28;20095;-73
2023/04/13 10:06:39;;;;;;;6.47;2.75;;;9.80;99.90;;;;;;5065685;28;20639;-73
2023/04/13 10:09:06;;;;;;;4.72;1.63;;;10.00;99.90;;;;;;5061692;28;20095;-72
2023/04/13 10:11:45;;;;;;;5.80;1.92;;;10.20;99.90;;;;;;5065481;28;20127;-73
2023/04/13 10:14:20;;;;;;;3.28;1.77;;;10.40;99.90;;;;;;5062053;28;20132;-73
2023/04/13 10:17:04;;;;;;;3.60;1.70;;;10.50;99.90;;;;;;5065962;28;20102;-73
2023/04/13 10:19:37;;;;;;;5.13;2.17;;;10.80;99.90;;;;;;5060983;28;20083;-73
2023/04/13 10:22:05;;;;;;;3.63;2.85;;;10.90;99.90;;;;;;5061299;28;20044;-72
2023/04/13 10:24:31;;;;;;;3.43;2.37;;;11.20;99.90;;;;;;5068097;28;20413;-73
2023/04/13 10:27:00;;;;;;;4.35;2.10;;;11.30;99.90;;;;;;5066553;28;20045;-72
2023/04/13 10:29:27;;;;;;;5.63;2.30;;;11.40;99.90;;;;;;5058113;28;20052;-73
2023/04/13 10:31:55;;;;;;;3.37;2.47;;;11.20;99.90;;;;;;5066177;28;20088;-73
2023/04/13 10:34:23;;;;;;;5.57;2.80;;;11.00;99.90;;;;;;5067895;28;20048;-74
2023/04/13 10:36:51;;;;;;;6.63;2.22;;;10.90;99.90;;;;;;5067133;28;20066;-73
2023/04/13 10:39:27;;;;;;;3.10;1.45;;;10.80;99.90;;;;;;5061925;28;20146;-73
2023/04/13 10:42:07;;;;;;;2.65;1.23;;;10.70;99.90;;;;;;5068292;28;20523;-74
2023/04/13 10:44:47;;;;;;;3.55;1.98;;;10.50;99.90;;;;;;5099175;28;20044;-74
2023/04/13 10:47:15;;;;;;;2.53;1.58;;;10.30;99.90;;;;;;5066361;28;20493;-74
2023/04/13 10:49:42;;;;;;;4.15;2.00;;;10.30;99.90;;;;;;5062365;28;20055;-73
2023/04/13 10:52:12;;;;;;;10.07;3.05;;;10.30;99.90;;;;;;5067581;28;20040;-73
2023/04/13 10:54:40;;;;;;;5.25;2.85;;;10.50;99.90;;;;;;5068047;28;20045;-74
2023/04/13 10:57:07;;;;;;;9.20;2.58;;;10.80;99.90;;;;;;5067284;28;20044;-74
2023/04/13 10:59:36;;;;;;;5.72;2.88;;;10.90;99.90;;;;;;5068373;28;20049;-73
2023/04/13 11:02:08;;;;;;;12.43;3.45;;;11.10;99.90;;;;;;5068149;28;20063;-74
2023/04/13 11:04:43;;;;;;;6.43;2.55;;;11.20;99.90;;;;;;5048918;28;20055;-73
2023/04/13 11:07:22;;;;;;;4.03;1.98;;;11.20;99.90;;;;;;5063593;28;20064;-74
2023/04/13 11:09:51;;;;;;;3.70;2.08;;;11.00;99.90;;;;;;5066562;28;20093;-73
2023/04/13 11:12:17;;;;;;;5.07;1.95;;;10.70;99.90;;;;;;5062743;28;20074;-74
2023/04/13 11:14:47;;;;;;;2.45;1.55;;;10.60;99.90;;;;;;5067578;28;20634;-74
2023/04/13 11:17:15;;;;;;;5.72;1.95;;;10.50;99.90;;;;;;5064021;28;20480;-73
2023/04/13 11:19:52;;;;;;;3.55;2.28;;;10.30;99.90;;;;;;5063694;28;20082;-73
2023/04/13 11:22:21;;;;;;;4.85;2.38;;;10.40;99.90;;;;;;5065973;28;20071;-74
2023/04/13 11:24:47;;;;;;;2.10;1.88;;;10.40;99.90;;;;;;5057461;28;20056;-73
2023/04/13 11:27:19;;;;;;;4.28;1.95;;;10.40;99.90;;;;;;5056719;28;20091;-74
2023/04/13 11:29:45;;;;;;;7.57;2.97;;;10.50;99.90;;;;;;5061530;28;20056;-74
2023/04/13 11:32:17;;;;;;;9.75;3.28;;;10.50;99.90;;;;;;5066608;28;20093;-73
2023/04/13 11:34:43;;;;;;;6.32;3.40;;;10.60;99.90;;;;;;5066453;28;20519;-74
2023/04/13 11:37:10;;;;;;;10.70;4.13;;;10.50;99.90;;;;;;5067701;28;20080;-74
2023/04/13 11:39:37;;;;;;;19.05;4.10;;;10.60;99.90;;;;;;5065297;28;20048;-73
2023/04/13 11:42:06;;;;;;;22.10;4.55;;;10.50;99.90;;;;;;5064933;28;20051;-74
2023/04/13 11:44:36;;;;;;;8.02;3.25;;;10.60;99.90;;;;;;5063067;28;20048;-73
2023/04/13 11:47:02;;;;;;;8.32;2.75;;;10.50;99.90;;;;;;5096103;28;20045;-73
2023/04/13 11:49:30;;;;;;;16.05;4.13;;;10.50;99.90;;;;;;5064992;28;20048;-73
2023/04/13 11:51:57;;;;;;;8.82;3.33;;;10.50;99.90;;;;;;5063823;28;20056;-73
2023/04/13 11:54:27;;;;;;;12.75;3.88;;;10.50;99.90;;;;;;5064394;28;20177;-73
2023/04/13 11:56:53;;;;;;;16.77;3.60;;;10.50;99.90;;;;;;5063741;28;20056;-72
2023/04/13 11:59:23;;;;;;;10.90;3.88;;;10.50;99.90;;;;;;5064254;28;20190;-73
2023/04/13 12:01:50;;;;;;;14.35;3.92;;;10.50;99.90;;;;;;5065370;28;20051;-73
2023/04/13 12:04:16;;;;;;;12.10;4.45;;;10.40;99.90;;;;;;5093800;28;20076;-72
2023/04/13 12:06:45;;;;;;;11.70;3.15;;;10.50;99.90;;;;;;5064758;28;20139;-73
2023/04/13 12:09:11;;;;;;;14.15;4.43;;;10.50;99.90;;;;;;5063882;28;20077;-73
2023/04/13 12:11:42;;;;;;;20.05;4.45;;;10.50;99.90;;;;;;5064813;28;20109;-72
2023/04/13 12:14:21;;;;;;;11.45;4.15;;;10.50;99.90;;;;;;5065619;28;20059;-72
2023/04/13 12:16:47;;;;;;;13.30;4.78;;;10.50;99.90;;;;;;5096477;28;20105;-72
2023/04/13 12:19:13;;;;;;;9.90;4.78;;;10.50;99.90;;;;;;5065438;28;20406;-72
2023/04/13 12:21:50;;;;;;;8.35;3.80;;;10.60;99.90;;;;;;5064832;28;20040;-72
2023/04/13 12:24:16;;;;;;;11.07;4.75;;;10.70;99.90;;;;;;5063981;28;20053;-72
2023/04/13 12:26:41;;;;;;;15.82;4.57;;;10.80;99.90;;;;;;5060698;28;20051;-72
2023/04/13 12:29:07;;;;;;;9.32;3.83;;;10.90;99.90;;;;;;5087401;28;20573;-73
2023/04/13 12:31:37;;;;;;;12.93;5.32;;;10.90;99.90;;;;;;5065369;28;20556;-72
2023/04/13 12:34:05;;;;;;;14.15;4.47;;;11.10;99.90;;;;;;5061441;28;20056;-71
2023/04/13 12:36:32;;;;;;;9.75;3.95;;;11.10;99.90;;;;;;5064816;28;20862;-72
2023/04/13 12:38:59;;;;;;;22.70;5.45;;;11.20;99.90;;;;;;5046387;28;20032;-72
2023/04/13 12:41:25;;;;;;;8.23;3.08;;;11.20;99.90;;;;;;5056868;28;20924;-72
2023/04/13 12:43:51;;;;;;;15.02;3.53;;;11.30;99.90;;;;;;5063720;28;20144;-72
2023/04/13 12:46:17;;;;;;;7.65;3.28;;;11.30;99.90;;;;;;5071110;28;20045;-72
2023/04/13 12:48:43;;;;;;;8.77;3.17;;;11.20;99.90;;;;;;5066047;28;20082;-71
2023/04/13 12:51:09;;;;;;;11.32;4.15;;;11.20;99.90;;;;;;5066233;28;20083;-73
2023/04/13 12:53:35;;;;;;;7.15;3.00;;;11.10;99.90;;;;;;5066978;28;20049;-72
2023/04/13 12:56:01;;;;;;;8.35;3.03;;;11.10;99.90;;;;;;5064280;28;20087;-72